Terminal Aerodrome Forecast
Issued by NWS

Home | Current Version | Previous Version | Text Only | Print | Product List | Glossary On
Versions: 1 2 3 4 5 6 7 8 9 10 11 12 13
000
FTUS46 KSEW 281807 RRA
TAFBLI
TAF
KBLI 281807Z 2818/2918 16006KT P6SM OVC025
     FM282200 17008KT P6SM SCT035 BKN060
     FM290300 VRB02KT P6SM SCT060 BKN100
     FM291700 15008KT P6SM -RA BKN035 OVC070=

USA.gov is the U.S. government's official web portal to all federal, state and local government web resources and services.